Time;durP1;ratioP1;P1;durP2;ratioP2;P2;SDS_P1;SDS_P2;PMS_P1;PMS_P2;Temp;Humidity;BMP_temperature;BMP_pressure;BME280_temperature;BME280_humidity;BME280_pressure;Samples;Min_cycle;Max_cycle;Signal;HPM_P1;HPM_P2
2023/10/12 00:02:04;;;;;;;27.90;22.90;;;;;;;;;;5091266;28;20436;-76
2023/10/12 00:04:37;;;;;;;24.90;22.37;;;;;;;;;;5090477;28;20895;-74
2023/10/12 00:07:10;;;;;;;24.97;22.97;;;;;;;;;;5091079;28;20940;-73
2023/10/12 00:09:37;;;;;;;25.60;23.70;;;;;;;;;;5090952;28;20452;-74
2023/10/12 00:12:08;;;;;;;26.87;24.20;;;;;;;;;;5091154;28;20456;-75
2023/10/12 00:14:36;;;;;;;26.43;24.27;;;;;;;;;;5090561;28;22407;-75
2023/10/12 00:17:06;;;;;;;27.10;25.00;;;;;;;;;;5091066;28;20473;-74
2023/10/12 00:19:38;;;;;;;25.00;23.20;;;;;;;;;;5091060;28;20452;-74
2023/10/12 00:22:11;;;;;;;24.33;22.60;;;;;;;;;;5090729;28;20805;-75
2023/10/12 00:24:39;;;;;;;24.43;22.53;;;;;;;;;;5090521;28;20436;-74
2023/10/12 00:27:08;;;;;;;24.90;23.00;;;;;;;;;;5091180;28;20511;-75
2023/10/12 00:29:35;;;;;;;26.07;23.57;;;;;;;;;;5091384;28;20551;-75
2023/10/12 00:32:06;;;;;;;24.80;22.60;;;;;;;;;;5090903;28;20455;-75
2023/10/12 00:34:37;;;;;;;24.67;22.37;;;;;;;;;;5091007;28;20534;-75
2023/10/12 00:37:06;;;;;;;25.50;23.10;;;;;;;;;;5096532;28;20464;-74
2023/10/12 00:39:57;;;;;;;24.27;22.03;;;;;;;;;;5095403;28;20487;-75
2023/10/12 00:42:29;;;;;;;24.63;22.60;;;;;;;;;;5096175;28;20519;-74
2023/10/12 00:44:56;;;;;;;25.77;23.23;;;;;;;;;;5095499;28;20508;-74
2023/10/12 00:47:43;;;;;;;25.83;23.40;;;;;;;;;;5094806;28;20464;-74
2023/10/12 00:50:12;;;;;;;24.10;22.03;;;;;;;;;;5094949;28;20432;-74
2023/10/12 00:52:53;;;;;;;24.63;22.60;;;;;;;;;;5094015;28;20438;-75
2023/10/12 00:55:22;;;;;;;25.07;22.80;;;;;;;;;;5094514;28;20476;-74
2023/10/12 00:57:50;;;;;;;24.80;22.60;;;;;;;;;;5093919;28;20472;-74
2023/10/12 01:00:18;;;;;;;25.37;23.17;;;;;;;;;;5095129;28;20428;-74
2023/10/12 01:03:06;;;;;;;22.90;21.40;;;;;;;;;;5094467;28;20482;-74
2023/10/12 01:05:36;;;;;;;25.27;23.17;;;;;;;;;;5093937;28;20412;-73
2023/10/12 01:08:03;;;;;;;25.67;23.03;;;;;;;;;;5094126;28;20439;-75
2023/10/12 01:10:32;;;;;;;26.23;22.77;;;;;;;;;;5094205;28;20426;-73
2023/10/12 01:13:00;;;;;;;25.87;23.80;;;;;;;;;;5094117;28;20457;-75
2023/10/12 01:15:30;;;;;;;24.80;22.87;;;;;;;;;;5093523;28;20451;-74
2023/10/12 01:17:57;;;;;;;25.30;23.20;;;;;;;;;;5093497;28;20488;-74
2023/10/12 01:20:26;;;;;;;25.00;22.67;;;;;;;;;;5094750;28;20441;-74
2023/10/12 01:22:57;;;;;;;24.40;22.27;;;;;;;;;;5094496;28;20481;-74
2023/10/12 01:25:28;;;;;;;24.90;22.90;;;;;;;;;;5094018;28;20512;-73
2023/10/12 01:34:03;;;;;;;22.50;20.80;;;;;;;;;;5092715;28;20400;-73
2023/10/12 01:36:32;;;;;;;24.87;22.90;;;;;;;;;;5094224;28;20485;-73
2023/10/12 01:39:12;;;;;;;23.17;21.30;;;;;;;;;;5092479;28;20448;-74
2023/10/12 01:41:41;;;;;;;24.33;22.33;;;;;;;;;;5093770;28;20459;-74
2023/10/12 01:44:10;;;;;;;25.70;23.10;;;;;;;;;;5093411;28;20983;-74
2023/10/12 01:46:39;;;;;;;25.53;23.13;;;;;;;;;;5093490;28;20515;-74
2023/10/12 01:49:07;;;;;;;23.87;21.67;;;;;;;;;;5094025;28;20532;-73
2023/10/12 01:51:36;;;;;;;22.93;21.33;;;;;;;;;;5095361;28;20452;-74
2023/10/12 01:54:06;;;;;;;24.50;22.43;;;;;;;;;;5096530;28;20457;-73
2023/10/12 01:56:33;;;;;;;25.37;23.00;;;;;;;;;;5095399;28;20483;-74
2023/10/12 01:59:06;;;;;;;24.03;21.93;;;;;;;;;;5094089;28;20479;-74
2023/10/12 02:01:34;;;;;;;23.50;21.80;;;;;;;;;;5094246;28;20479;-74
2023/10/12 02:04:02;;;;;;;24.57;22.30;;;;;;;;;;5093463;28;20427;-74
2023/10/12 02:06:30;;;;;;;25.03;22.93;;;;;;;;;;5093063;28;20461;-74
2023/10/12 02:09:08;;;;;;;22.63;21.13;;;;;;;;;;5093633;28;20768;-74
2023/10/12 02:11:44;;;;;;;24.93;23.03;;;;;;;;;;5093816;28;20812;-74
2023/10/12 02:14:12;;;;;;;24.37;22.50;;;;;;;;;;5093095;28;20404;-74
2023/10/12 02:16:52;;;;;;;25.67;23.47;;;;;;;;;;5093191;28;20537;-73
2023/10/12 02:19:31;;;;;;;26.33;23.93;;;;;;;;;;5093409;28;20902;-74
2023/10/12 02:22:01;;;;;;;24.73;22.53;;;;;;;;;;5093288;28;20880;-74
2023/10/12 02:24:28;;;;;;;26.57;24.20;;;;;;;;;;5092767;28;20859;-74
2023/10/12 02:27:00;;;;;;;27.03;24.60;;;;;;;;;;5092904;28;20488;-74
2023/10/12 02:29:29;;;;;;;25.03;23.03;;;;;;;;;;5092956;28;20948;-75
2023/10/12 02:31:58;;;;;;;26.73;24.43;;;;;;;;;;5094164;28;20545;-74
2023/10/12 02:34:26;;;;;;;24.87;23.13;;;;;;;;;;5093070;28;20479;-73
2023/10/12 02:37:08;;;;;;;24.33;22.20;;;;;;;;;;5093276;28;20829;-74
2023/10/12 02:39:37;;;;;;;27.30;24.87;;;;;;;;;;5098321;28;20427;-73
2023/10/12 02:42:16;;;;;;;31.30;28.70;;;;;;;;;;5096642;28;20472;-74
2023/10/12 02:44:56;;;;;;;31.87;29.00;;;;;;;;;;5093491;28;20448;-74
2023/10/12 02:47:24;;;;;;;30.33;27.77;;;;;;;;;;5091926;28;20431;-74
2023/10/12 02:49:51;;;;;;;32.73;29.63;;;;;;;;;;5097619;28;20432;-74
2023/10/12 02:52:20;;;;;;;30.07;27.47;;;;;;;;;;5095316;28;20437;-75
2023/10/12 02:54:50;;;;;;;34.10;31.03;;;;;;;;;;5095146;28;20448;-74
2023/10/12 02:57:23;;;;;;;33.60;30.37;;;;;;;;;;5095261;28;20484;-75
2023/10/12 02:59:57;;;;;;;33.87;30.97;;;;;;;;;;5094497;28;21356;-75
2023/10/12 03:02:31;;;;;;;37.70;34.43;;;;;;;;;;5097268;28;20516;-76
2023/10/12 03:04:59;;;;;;;33.90;31.03;;;;;;;;;;5097030;28;20445;-75
2023/10/12 03:07:27;;;;;;;34.47;31.47;;;;;;;;;;5099436;28;20465;-74
2023/10/12 03:09:59;;;;;;;33.70;30.97;;;;;;;;;;5099988;28;20431;-75
2023/10/12 03:12:34;;;;;;;36.30;33.17;;;;;;;;;;5100401;28;20407;-75
2023/10/12 03:15:11;;;;;;;41.03;37.20;;;;;;;;;;5099341;28;20460;-74
2023/10/12 03:17:41;;;;;;;40.50;36.97;;;;;;;;;;5098828;28;20449;-74
2023/10/12 03:20:20;;;;;;;40.57;37.03;;;;;;;;;;5098300;28;20431;-74
2023/10/12 03:22:52;;;;;;;39.77;36.00;;;;;;;;;;5097554;28;20911;-75
2023/10/12 03:25:20;;;;;;;40.90;37.70;;;;;;;;;;5098574;28;20424;-75
2023/10/12 03:27:52;;;;;;;46.97;42.67;;;;;;;;;;5098828;28;20461;-74
2023/10/12 03:30:24;;;;;;;47.93;43.63;;;;;;;;;;5098258;28;20436;-75
2023/10/12 03:32:52;;;;;;;51.00;46.27;;;;;;;;;;5099516;28;20445;-75
2023/10/12 03:35:25;;;;;;;51.30;46.40;;;;;;;;;;5098414;28;20416;-75
2023/10/12 03:38:00;;;;;;;54.10;48.93;;;;;;;;;;5098519;28;20443;-75
2023/10/12 03:43:25;;;;;;;58.37;52.27;;;;;;;;;;5098687;28;20911;-75
2023/10/12 03:46:07;;;;;;;59.07;53.43;;;;;;;;;;5078263;28;20967;-74
2023/10/12 03:49:05;;;;;;;58.40;52.90;;;;;;;;;;5098064;28;20457;-75
2023/10/12 03:51:41;;;;;;;57.50;51.50;;;;;;;;;;5097997;28;20432;-75
2023/10/12 03:54:18;;;;;;;57.93;52.63;;;;;;;;;;5097020;28;20426;-74
2023/10/12 03:56:48;;;;;;;55.23;49.97;;;;;;;;;;5098973;28;20473;-74
2023/10/12 03:59:19;;;;;;;56.93;51.57;;;;;;;;;;5097512;28;20448;-74
2023/10/12 04:01:47;;;;;;;57.93;52.23;;;;;;;;;;5098493;28;20474;-75
2023/10/12 04:04:21;;;;;;;56.50;50.50;;;;;;;;;;5095861;28;20426;-73
2023/10/12 04:07:05;;;;;;;58.27;50.90;;;;;;;;;;5096773;28;20436;-76
2023/10/12 04:09:42;;;;;;;63.40;52.03;;;;;;;;;;5098213;28;20513;-75
2023/10/12 04:12:19;;;;;;;51.17;46.37;;;;;;;;;;5101842;28;20937;-75
2023/10/12 04:14:52;;;;;;;55.37;49.90;;;;;;;;;;5101014;28;20453;-75
2023/10/12 04:20:14;;;;;;;63.00;52.40;;;;;;;;;;5103987;28;20460;-75
2023/10/12 04:25:45;;;;;;;59.10;52.80;;;;;;;;;;5104395;28;20398;-75
2023/10/12 04:28:18;;;;;;;54.03;48.70;;;;;;;;;;5098842;28;20476;-75
2023/10/12 04:33:38;;;;;;;59.70;53.50;;;;;;;;;;5093927;28;20441;-75
2023/10/12 04:36:14;;;;;;;61.80;54.80;;;;;;;;;;5094417;28;20475;-75
2023/10/12 04:38:57;;;;;;;60.30;53.93;;;;;;;;;;5094892;28;20399;-75
2023/10/12 04:41:37;;;;;;;59.20;53.20;;;;;;;;;;5094568;28;20431;-75
2023/10/12 04:44:17;;;;;;;61.33;52.33;;;;;;;;;;5094247;28;20465;-75
2023/10/12 04:46:47;;;;;;;60.77;54.23;;;;;;;;;;5094139;28;20490;-75
2023/10/12 04:52:08;;;;;;;61.23;54.63;;;;;;;;;;5092932;28;20418;-76
2023/10/12 04:54:36;;;;;;;60.73;54.23;;;;;;;;;;5093851;28;20422;-76
2023/10/12 04:57:13;;;;;;;58.70;52.30;;;;;;;;;;5094473;28;20486;-75
2023/10/12 04:59:50;;;;;;;55.13;49.63;;;;;;;;;;5094701;28;20548;-75
2023/10/12 05:02:28;;;;;;;59.83;53.70;;;;;;;;;;5094364;28;20494;-75
2023/10/12 05:07:55;;;;;;;64.50;55.37;;;;;;;;;;5094118;28;20582;-74
2023/10/12 05:10:28;;;;;;;57.80;51.80;;;;;;;;;;5094216;28;20494;-75
2023/10/12 05:12:57;;;;;;;60.87;54.33;;;;;;;;;;5094099;28;20448;-75
2023/10/12 05:15:27;;;;;;;64.63;57.03;;;;;;;;;;5093611;28;20996;-75
2023/10/12 05:17:55;;;;;;;68.00;60.57;;;;;;;;;;5094206;28;20562;-75
2023/10/12 05:20:24;;;;;;;74.90;64.40;;;;;;;;;;5093944;28;20451;-75
2023/10/12 05:22:51;;;;;;;82.20;57.57;;;;;;;;;;5092925;28;20449;-75
2023/10/12 05:25:18;;;;;;;73.20;63.70;;;;;;;;;;5093261;28;20999;-75
2023/10/12 05:28:05;;;;;;;83.90;65.87;;;;;;;;;;5094021;28;20464;-75
2023/10/12 05:30:32;;;;;;;82.57;68.40;;;;;;;;;;5093977;28;20444;-75
2023/10/12 05:33:05;;;;;;;85.13;68.77;;;;;;;;;;5094044;28;20453;-75
2023/10/12 05:35:49;;;;;;;92.57;72.23;;;;;;;;;;5093694;28;20441;-75
2023/10/12 05:38:17;;;;;;;97.30;68.07;;;;;;;;;;5094098;28;20432;-75
2023/10/12 05:40:53;;;;;;;101.27;72.17;;;;;;;;;;5093616;28;20877;-75
2023/10/12 05:43:22;;;;;;;112.93;90.73;;;;;;;;;;5093588;28;20432;-75
2023/10/12 05:45:49;;;;;;;108.80;92.07;;;;;;;;;;5092866;28;20481;-75
2023/10/12 05:48:19;;;;;;;101.17;90.37;;;;;;;;;;5093441;28;20496;-75
2023/10/12 05:50:49;;;;;;;108.23;91.70;;;;;;;;;;5093284;28;20462;-75
2023/10/12 05:53:17;;;;;;;108.57;92.70;;;;;;;;;;5092077;28;20453;-75
2023/10/12 05:55:45;;;;;;;94.07;84.57;;;;;;;;;;5092972;28;20532;-76
2023/10/12 05:58:13;;;;;;;98.70;86.90;;;;;;;;;;5093229;28;20572;-75
2023/10/12 06:00:44;;;;;;;102.37;88.23;;;;;;;;;;5093454;28;20547;-75
2023/10/12 06:03:15;;;;;;;103.90;92.57;;;;;;;;;;5093527;28;20433;-73
2023/10/12 06:05:44;;;;;;;116.00;94.23;;;;;;;;;;5092681;28;20897;-74
2023/10/12 06:08:12;;;;;;;122.57;91.60;;;;;;;;;;5093386;28;20443;-73
2023/10/12 06:10:41;;;;;;;102.43;91.43;;;;;;;;;;5093441;28;20495;-73
2023/10/12 06:13:09;;;;;;;110.20;98.20;;;;;;;;;;5093523;28;20522;-73
2023/10/12 06:15:40;;;;;;;101.97;92.07;;;;;;;;;;5092648;28;20476;-74
2023/10/12 06:18:10;;;;;;;126.60;104.87;;;;;;;;;;5093364;28;20500;-74
2023/10/12 06:20:40;;;;;;;128.83;104.33;;;;;;;;;;5092949;28;21190;-73
2023/10/12 06:23:12;;;;;;;150.00;109.60;;;;;;;;;;5093080;28;20423;-73
2023/10/12 06:25:43;;;;;;;121.67;106.30;;;;;;;;;;5092430;28;20519;-73
2023/10/12 06:28:17;;;;;;;111.70;99.80;;;;;;;;;;5092904;28;21176;-74
2023/10/12 06:30:44;;;;;;;110.63;99.80;;;;;;;;;;5093259;28;20408;-73
2023/10/12 06:33:14;;;;;;;112.60;100.77;;;;;;;;;;5092502;28;20440;-73
2023/10/12 06:35:58;;;;;;;110.43;99.40;;;;;;;;;;5092197;28;20435;-73
2023/10/12 06:38:36;;;;;;;116.50;104.27;;;;;;;;;;5092466;28;20476;-73
2023/10/12 06:41:27;;;;;;;118.50;105.70;;;;;;;;;;5092552;28;20492;-73
2023/10/12 06:43:59;;;;;;;121.20;105.43;;;;;;;;;;5091708;28;20931;-74
2023/10/12 06:46:28;;;;;;;107.13;96.60;;;;;;;;;;5092614;28;20442;-73
2023/10/12 06:49:00;;;;;;;110.20;98.23;;;;;;;;;;5092440;28;20471;-73
2023/10/12 06:51:28;;;;;;;104.30;94.20;;;;;;;;;;5092522;28;20449;-73
2023/10/12 06:54:17;;;;;;;108.53;95.03;;;;;;;;;;5091138;28;20480;-73
2023/10/12 06:56:49;;;;;;;107.60;96.83;;;;;;;;;;5092307;28;20849;-73
2023/10/12 06:59:27;;;;;;;100.77;91.33;;;;;;;;;;5092184;28;20426;-73
2023/10/12 07:02:09;;;;;;;101.80;93.10;;;;;;;;;;5092330;28;20747;-73
2023/10/12 07:04:38;;;;;;;104.47;94.33;;;;;;;;;;5091754;28;20437;-72
2023/10/12 07:07:10;;;;;;;107.97;98.50;;;;;;;;;;5092491;28;20439;-75
2023/10/12 07:09:39;;;;;;;103.30;93.90;;;;;;;;;;5091951;28;20871;-74
2023/10/12 07:12:07;;;;;;;100.87;91.60;;;;;;;;;;5091858;28;20445;-74
2023/10/12 07:14:38;;;;;;;103.60;93.40;;;;;;;;;;5091282;28;20480;-74
2023/10/12 07:17:07;;;;;;;109.00;98.13;;;;;;;;;;5091910;28;20484;-73
2023/10/12 07:19:34;;;;;;;99.50;91.00;;;;;;;;;;5092151;28;20444;-73
2023/10/12 07:22:07;;;;;;;99.67;91.33;;;;;;;;;;5091657;28;20531;-73
2023/10/12 07:24:36;;;;;;;92.03;84.90;;;;;;;;;;5091162;28;20429;-73
2023/10/12 07:27:11;;;;;;;100.03;91.30;;;;;;;;;;5091080;28;20481;-74
2023/10/12 07:29:39;;;;;;;99.03;90.77;;;;;;;;;;5091885;28;20439;-73
2023/10/12 07:32:18;;;;;;;93.63;86.10;;;;;;;;;;5091697;28;20466;-74
2023/10/12 07:34:52;;;;;;;93.93;86.33;;;;;;;;;;5091527;28;20414;-73
2023/10/12 07:37:19;;;;;;;94.80;86.27;;;;;;;;;;5092019;28;20491;-73
2023/10/12 07:39:46;;;;;;;89.13;81.37;;;;;;;;;;5090612;28;20445;-74
2023/10/12 07:42:24;;;;;;;95.13;86.67;;;;;;;;;;5091430;28;20447;-73
2023/10/12 07:44:54;;;;;;;89.23;81.90;;;;;;;;;;5090628;28;20404;-73
2023/10/12 07:47:31;;;;;;;84.70;77.67;;;;;;;;;;5091263;28;20975;-74
2023/10/12 07:50:07;;;;;;;89.13;81.50;;;;;;;;;;5091181;28;20439;-74
2023/10/12 07:52:44;;;;;;;85.73;78.83;;;;;;;;;;5091365;28;20433;-73
2023/10/12 07:55:13;;;;;;;86.20;79.27;;;;;;;;;;5089940;28;20506;-73
2023/10/12 07:57:41;;;;;;;86.43;79.50;;;;;;;;;;5091188;28;20521;-73
2023/10/12 08:08:37;;;;;;;88.23;80.77;;;;;;;;;;5090269;28;20415;-73
2023/10/12 08:14:09;;;;;;;80.33;74.33;;;;;;;;;;5074912;28;20422;-74
2023/10/12 08:16:40;;;;;;;83.37;76.60;;;;;;;;;;5091125;28;20431;-73
2023/10/12 08:19:28;;;;;;;78.50;72.47;;;;;;;;;;5091297;28;20415;-74
2023/10/12 08:22:09;;;;;;;80.43;73.30;;;;;;;;;;5091024;28;20798;-73
2023/10/12 08:24:37;;;;;;;86.73;79.03;;;;;;;;;;5090596;28;20441;-74
2023/10/12 08:27:07;;;;;;;87.33;79.13;;;;;;;;;;5090953;28;20485;-73
2023/10/12 08:32:32;;;;;;;91.13;83.27;;;;;;;;;;5091026;28;20461;-73
2023/10/12 08:35:11;;;;;;;104.63;94.33;;;;;;;;;;5090811;28;20464;-73
2023/10/12 08:38:09;;;;;;;105.93;96.13;;;;;;;;;;5091347;28;20467;-74
2023/10/12 08:40:30;;;;;;;100.37;92.37;;;;;;;;;;5090292;28;21068;-75
2023/10/12 08:42:58;;;;;;;97.67;89.70;;;;;;;;;;5091185;28;20416;-76
2023/10/12 08:45:30;;;;;;;96.90;88.90;;;;;;;;;;5089942;28;20440;-76
2023/10/12 08:48:02;;;;;;;97.73;89.60;;;;;;;;;;5090759;28;20465;-76
2023/10/12 08:53:15;;;;;;;96.03;87.80;;;;;;;;;;5090989;28;20441;-75
2023/10/12 08:55:42;;;;;;;97.63;89.50;;;;;;;;;;5090407;28;20847;-76
2023/10/12 08:58:15;;;;;;;100.33;92.00;;;;;;;;;;5094391;28;20480;-75
2023/10/12 09:01:07;;;;;;;99.07;90.50;;;;;;;;;;5094315;28;20812;-75
2023/10/12 09:03:38;;;;;;;97.33;89.13;;;;;;;;;;5094161;28;20427;-75
2023/10/12 09:06:14;;;;;;;89.70;82.80;;;;;;;;;;5093750;28;20435;-75
2023/10/12 09:08:41;;;;;;;97.57;88.77;;;;;;;;;;5094206;28;20543;-76
2023/10/12 09:11:25;;;;;;;91.60;85.10;;;;;;;;;;5094102;28;20451;-75
2023/10/12 09:13:57;;;;;;;90.50;83.00;;;;;;;;;;5093637;28;20430;-75
2023/10/12 09:16:26;;;;;;;97.80;89.73;;;;;;;;;;5094047;28;20460;-75
2023/10/12 09:18:57;;;;;;;101.37;92.77;;;;;;;;;;5094130;28;20495;-75
2023/10/12 09:21:29;;;;;;;92.07;84.53;;;;;;;;;;5093819;28;20436;-75
2023/10/12 09:24:05;;;;;;;101.50;92.03;;;;;;;;;;5093706;28;20460;-76
2023/10/12 09:26:33;;;;;;;93.50;85.33;;;;;;;;;;5094036;28;20500;-76
2023/10/12 09:29:08;;;;;;;101.73;93.00;;;;;;;;;;5094161;28;20420;-76
2023/10/12 09:31:54;;;;;;;98.47;89.07;;;;;;;;;;5094178;28;20407;-76
2023/10/12 09:37:06;;;;;;;99.63;91.43;;;;;;;;;;5093744;28;20415;-76
2023/10/12 09:39:35;;;;;;;97.00;89.33;;;;;;;;;;5093721;28;20441;-76
2023/10/12 09:42:13;;;;;;;105.57;95.20;;;;;;;;;;5093475;28;20453;-76
2023/10/12 09:44:41;;;;;;;98.93;90.03;;;;;;;;;;5091769;28;20428;-76
2023/10/12 09:47:15;;;;;;;97.80;89.80;;;;;;;;;;5093806;28;20440;-76
2023/10/12 09:49:47;;;;;;;108.73;98.03;;;;;;;;;;5093428;28;20999;-76
2023/10/12 09:52:17;;;;;;;121.43;104.20;;;;;;;;;;5093479;28;20430;-76
2023/10/12 09:54:46;;;;;;;110.17;99.73;;;;;;;;;;5092849;28;20469;-76
2023/10/12 09:57:23;;;;;;;109.30;98.90;;;;;;;;;;5093379;28;20500;-76
2023/10/12 09:59:53;;;;;;;95.10;87.80;;;;;;;;;;5093254;28;20444;-77
2023/10/12 10:02:30;;;;;;;104.50;94.20;;;;;;;;;;5093510;28;20441;-76
2023/10/12 10:05:11;;;;;;;91.83;84.37;;;;;;;;;;5092917;28;20444;-76
2023/10/12 10:07:39;;;;;;;77.47;72.37;;;;;;;;;;5092631;28;20439;-76
2023/10/12 10:10:16;;;;;;;77.17;71.63;;;;;;;;;;5092947;28;20986;-76
2023/10/12 10:12:43;;;;;;;72.63;67.70;;;;;;;;;;5092683;28;20460;-76
2023/10/12 10:15:20;;;;;;;74.27;69.63;;;;;;;;;;5092736;28;20443;-76
2023/10/12 10:17:52;;;;;;;74.13;69.73;;;;;;;;;;5092061;28;21049;-76
2023/10/12 10:23:14;;;;;;;76.33;71.23;;;;;;;;;;5093132;28;20505;-75
2023/10/12 10:25:46;;;;;;;80.47;74.97;;;;;;;;;;5092810;28;20440;-76
2023/10/12 10:28:18;;;;;;;81.40;76.60;;;;;;;;;;5092641;28;20470;-76
2023/10/12 10:30:49;;;;;;;70.80;66.40;;;;;;;;;;5093185;28;20440;-76
2023/10/12 10:33:22;;;;;;;77.70;73.20;;;;;;;;;;5093143;28;20436;-77
2023/10/12 10:36:00;;;;;;;77.00;71.80;;;;;;;;;;5092391;28;20889;-76
2023/10/12 10:38:32;;;;;;;77.17;72.07;;;;;;;;;;5093335;28;20545;-74
2023/10/12 10:41:07;;;;;;;77.43;72.37;;;;;;;;;;5092860;28;20431;-74
2023/10/12 10:43:37;;;;;;;75.63;70.53;;;;;;;;;;5093162;28;20421;-74
2023/10/12 10:46:06;;;;;;;74.10;69.60;;;;;;;;;;5091776;28;20420;-74
2023/10/12 10:48:36;;;;;;;73.63;69.03;;;;;;;;;;5092667;28;21009;-74
2023/10/12 10:51:07;;;;;;;75.97;71.37;;;;;;;;;;5092823;28;20449;-73
2023/10/12 10:53:37;;;;;;;77.53;72.73;;;;;;;;;;5092813;28;20452;-73
2023/10/12 10:56:12;;;;;;;74.47;69.87;;;;;;;;;;5091848;28;20443;-74
2023/10/12 10:58:40;;;;;;;76.43;71.83;;;;;;;;;;5092632;28;20493;-74
2023/10/12 11:01:12;;;;;;;75.80;71.00;;;;;;;;;;5092163;28;20907;-73
2023/10/12 11:03:40;;;;;;;71.40;66.70;;;;;;;;;;5092411;28;20445;-74
2023/10/12 11:06:21;;;;;;;70.83;66.73;;;;;;;;;;5091764;28;20457;-74
2023/10/12 11:08:53;;;;;;;77.73;73.20;;;;;;;;;;5092249;28;20426;-73
2023/10/12 11:11:26;;;;;;;71.53;66.83;;;;;;;;;;5092377;28;20411;-73
2023/10/12 11:13:55;;;;;;;70.60;66.30;;;;;;;;;;5091678;28;20591;-76
2023/10/12 11:16:28;;;;;;;76.03;71.33;;;;;;;;;;5092089;28;20447;-76
2023/10/12 11:18:58;;;;;;;79.47;74.37;;;;;;;;;;5091352;28;20459;-76
2023/10/12 11:21:26;;;;;;;79.37;74.30;;;;;;;;;;5091169;28;20441;-76
2023/10/12 11:23:58;;;;;;;80.10;75.30;;;;;;;;;;5090153;28;20903;-76
2023/10/12 11:26:25;;;;;;;75.73;70.93;;;;;;;;;;5092013;28;20464;-76
2023/10/12 11:29:03;;;;;;;79.83;74.83;;;;;;;;;;5092102;28;20512;-76
2023/10/12 11:31:31;;;;;;;77.97;72.87;;;;;;;;;;5090457;28;20430;-76
2023/10/12 11:33:59;;;;;;;79.57;74.27;;;;;;;;;;5091247;28;20428;-76
2023/10/12 11:36:27;;;;;;;81.60;76.50;;;;;;;;;;5091265;28;20444;-76
2023/10/12 11:38:58;;;;;;;80.00;74.90;;;;;;;;;;5091849;28;20451;-76
2023/10/12 11:41:26;;;;;;;80.23;75.50;;;;;;;;;;5091569;28;20526;-76
2023/10/12 11:43:54;;;;;;;81.37;76.00;;;;;;;;;;5091193;28;20850;-76
2023/10/12 11:46:21;;;;;;;79.07;74.00;;;;;;;;;;5091460;28;20469;-76
2023/10/12 11:49:02;;;;;;;75.80;71.00;;;;;;;;;;5091367;28;20430;-76
2023/10/12 11:51:30;;;;;;;77.33;72.60;;;;;;;;;;5091338;28;20885;-76
2023/10/12 11:53:57;;;;;;;82.97;77.77;;;;;;;;;;5090857;28;20484;-76
2023/10/12 11:56:25;;;;;;;83.07;77.93;;;;;;;;;;5091368;28;20442;-76
2023/10/12 11:58:54;;;;;;;81.40;75.47;;;;;;;;;;5091465;28;20488;-76
2023/10/12 12:01:21;;;;;;;78.47;73.27;;;;;;;;;;5091541;28;20452;-76
2023/10/12 12:03:53;;;;;;;83.30;77.67;;;;;;;;;;5090270;28;20432;-77
2023/10/12 12:06:22;;;;;;;86.47;80.40;;;;;;;;;;5091396;28;20460;-76
2023/10/12 12:08:50;;;;;;;82.10;76.43;;;;;;;;;;5090062;28;20494;-76
2023/10/12 12:11:19;;;;;;;80.07;74.20;;;;;;;;;;5091214;28;20433;-76
2023/10/12 12:13:51;;;;;;;80.93;75.43;;;;;;;;;;5091138;28;20484;-76
2023/10/12 12:16:20;;;;;;;84.30;78.57;;;;;;;;;;5090970;28;20499;-76
2023/10/12 12:18:51;;;;;;;86.10;80.30;;;;;;;;;;5091013;28;20839;-76
2023/10/12 12:21:29;;;;;;;81.93;75.93;;;;;;;;;;5091106;28;20416;-76
2023/10/12 12:24:00;;;;;;;87.10;80.70;;;;;;;;;;5090439;28;20506;-76
2023/10/12 12:26:33;;;;;;;82.17;76.27;;;;;;;;;;5091103;28;20465;-76
2023/10/12 12:29:04;;;;;;;86.23;79.77;;;;;;;;;;5091193;28;20532;-76
2023/10/12 12:31:32;;;;;;;81.07;75.13;;;;;;;;;;5092320;28;20444;-76
2023/10/12 12:34:01;;;;;;;90.50;83.20;;;;;;;;;;5094667;28;20836;-76
2023/10/12 12:36:29;;;;;;;89.00;80.50;;;;;;;;;;5095196;28;20490;-76
2023/10/12 12:39:00;;;;;;;89.40;81.63;;;;;;;;;;5094669;28;20487;-76
2023/10/12 12:41:29;;;;;;;89.10;80.70;;;;;;;;;;5094760;28;20459;-76
2023/10/12 12:43:58;;;;;;;80.63;73.53;;;;;;;;;;5094328;28;20449;-76
2023/10/12 12:46:26;;;;;;;81.77;74.67;;;;;;;;;;5094523;28;20469;-75
2023/10/12 12:48:53;;;;;;;84.27;77.70;;;;;;;;;;5094421;28;20932;-75
2023/10/12 12:51:20;;;;;;;79.37;72.87;;;;;;;;;;5094795;28;20444;-75
2023/10/12 12:53:49;;;;;;;79.57;72.87;;;;;;;;;;5093879;28;20441;-76
2023/10/12 12:56:18;;;;;;;81.43;75.00;;;;;;;;;;5094106;28;20808;-75
2023/10/12 12:58:47;;;;;;;78.30;70.77;;;;;;;;;;5094255;28;21056;-76
2023/10/12 13:01:14;;;;;;;82.67;74.73;;;;;;;;;;5094343;28;20543;-75
2023/10/12 13:03:42;;;;;;;82.97;74.67;;;;;;;;;;5094171;28;20530;-76
2023/10/12 13:06:09;;;;;;;81.97;74.40;;;;;;;;;;5093783;28;20523;-76
2023/10/12 13:08:36;;;;;;;83.23;75.87;;;;;;;;;;5094449;28;20444;-77
2023/10/12 13:11:06;;;;;;;88.63;81.27;;;;;;;;;;5092941;28;20513;-76
2023/10/12 13:13:35;;;;;;;85.43;78.60;;;;;;;;;;5094484;28;20474;-76
2023/10/12 13:16:04;;;;;;;83.80;76.73;;;;;;;;;;5093643;28;20542;-76
2023/10/12 13:18:32;;;;;;;82.23;75.43;;;;;;;;;;5094366;28;20510;-76
2023/10/12 13:21:00;;;;;;;81.80;74.70;;;;;;;;;;5094465;28;20427;-77
2023/10/12 13:23:27;;;;;;;82.10;75.70;;;;;;;;;;5094320;28;20808;-76
2023/10/12 13:25:54;;;;;;;81.90;75.17;;;;;;;;;;5093390;28;20542;-76
2023/10/12 13:28:21;;;;;;;79.87;73.20;;;;;;;;;;5094054;28;20819;-76
2023/10/12 13:30:49;;;;;;;78.97;72.70;;;;;;;;;;5093866;28;20448;-76
2023/10/12 13:33:16;;;;;;;85.07;77.10;;;;;;;;;;5093769;28;20427;-76
2023/10/12 13:35:45;;;;;;;77.50;71.73;;;;;;;;;;5093467;28;21060;-76
2023/10/12 13:38:15;;;;;;;82.47;75.17;;;;;;;;;;5093721;28;20510;-76
2023/10/12 13:40:43;;;;;;;97.50;87.50;;;;;;;;;;5093778;28;20461;-76
2023/10/12 13:43:18;;;;;;;80.73;74.10;;;;;;;;;;5093139;28;20448;-76
2023/10/12 13:45:47;;;;;;;1204.63;612.73;;;;;;;;;;5093210;28;20436;-76
2023/10/12 13:48:17;;;;;;;523.60;336.97;;;;;;;;;;5093924;28;20450;-76
2023/10/12 13:50:46;;;;;;;95.63;87.03;;;;;;;;;;5093635;28;20463;-76
2023/10/12 13:53:15;;;;;;;88.20;80.63;;;;;;;;;;5093592;28;20452;-76
2023/10/12 13:55:42;;;;;;;81.60;75.30;;;;;;;;;;5092520;28;20464;-76
2023/10/12 13:58:10;;;;;;;78.67;72.87;;;;;;;;;;5093741;28;20454;-76
2023/10/12 14:00:37;;;;;;;83.37;75.67;;;;;;;;;;5093188;28;20963;-76
2023/10/12 14:03:11;;;;;;;80.13;74.03;;;;;;;;;;5092080;28;20455;-76
2023/10/12 14:05:40;;;;;;;83.57;76.33;;;;;;;;;;5092586;28;20940;-76
2023/10/12 14:08:08;;;;;;;81.30;74.93;;;;;;;;;;5093281;28;20496;-76
2023/10/12 14:10:39;;;;;;;94.30;85.30;;;;;;;;;;5093326;28;20451;-76
2023/10/12 14:13:07;;;;;;;87.53;80.50;;;;;;;;;;5093279;28;20407;-76
2023/10/12 14:15:35;;;;;;;90.17;82.57;;;;;;;;;;5092016;28;20443;-76
2023/10/12 14:18:03;;;;;;;85.60;78.03;;;;;;;;;;5093004;28;20865;-76
2023/10/12 14:20:32;;;;;;;90.30;82.77;;;;;;;;;;5093156;28;20488;-76
2023/10/12 14:23:05;;;;;;;87.30;80.60;;;;;;;;;;5093184;28;20507;-76
2023/10/12 14:25:33;;;;;;;81.33;74.80;;;;;;;;;;5091117;28;20473;-76
2023/10/12 14:28:00;;;;;;;87.80;79.80;;;;;;;;;;5092979;28;20472;-76
2023/10/12 14:30:29;;;;;;;90.37;82.20;;;;;;;;;;5093366;28;20443;-77
2023/10/12 14:32:56;;;;;;;85.17;78.53;;;;;;;;;;5093014;28;20451;-77
2023/10/12 14:35:25;;;;;;;87.37;79.90;;;;;;;;;;5092583;28;20441;-76
2023/10/12 14:37:55;;;;;;;90.97;82.33;;;;;;;;;;5092665;28;20488;-76
2023/10/12 14:40:29;;;;;;;92.13;84.73;;;;;;;;;;5091927;28;20573;-76
2023/10/12 14:42:56;;;;;;;97.23;87.53;;;;;;;;;;5092700;28;20464;-76
2023/10/12 14:45:24;;;;;;;91.70;83.37;;;;;;;;;;5092189;28;20416;-77
2023/10/12 14:47:51;;;;;;;89.33;81.17;;;;;;;;;;5092686;28;20546;-76
2023/10/12 14:50:18;;;;;;;91.33;83.50;;;;;;;;;;5091056;28;20440;-76
2023/10/12 14:52:45;;;;;;;86.07;78.43;;;;;;;;;;5092801;28;20429;-76
2023/10/12 14:55:12;;;;;;;93.77;85.10;;;;;;;;;;5091897;28;20463;-76
2023/10/12 14:57:42;;;;;;;93.27;85.00;;;;;;;;;;5091805;28;20485;-76
2023/10/12 15:00:20;;;;;;;95.30;87.10;;;;;;;;;;5092393;28;20583;-76
2023/10/12 15:02:49;;;;;;;88.10;80.90;;;;;;;;;;5092089;28;20419;-76
2023/10/12 15:05:16;;;;;;;102.30;93.33;;;;;;;;;;5091735;28;20496;-76
2023/10/12 15:07:43;;;;;;;101.20;92.30;;;;;;;;;;5091693;28;20529;-76
2023/10/12 15:10:13;;;;;;;101.37;92.83;;;;;;;;;;5092019;28;20537;-76
2023/10/12 15:12:43;;;;;;;94.57;86.07;;;;;;;;;;5092286;28;20452;-75
2023/10/12 15:15:14;;;;;;;100.40;90.80;;;;;;;;;;5091615;28;20449;-75
2023/10/12 15:17:41;;;;;;;103.83;93.40;;;;;;;;;;5091407;28;20550;-75
2023/10/12 15:20:12;;;;;;;100.13;91.40;;;;;;;;;;5091964;28;20476;-76
2023/10/12 15:22:40;;;;;;;105.80;94.90;;;;;;;;;;5091847;28;20445;-76
2023/10/12 15:25:08;;;;;;;113.87;101.87;;;;;;;;;;5091285;28;20593;-75